Hitachimaru — JD2063 — position and weather

sailwx.info

Track history (hours):
 
Tides and Currents Weather Stations Pressure Air Temp Water Temp Dewpoint Dewpoint Depression Visibility Wind Speed Wind Dir Waves Ship Positions

Hitachimaru

Last reported at 2016-May-26 05:24 UTC. Time now 2016-May-28 11:55 UTC.
Position N 34°58' E 140°06'.

Length 83 m; draft 4.7 m.

Type: Cargo ship. MMSI: 431301756.

Date/timePositionNaut miles runAvg speedWind from/ knotsBaromVisibWave heightAir tempDewpointWater temp
2016-May-26 05:24N 34°58' E 140°06'38 9.8
2016-May-26 01:30N 35°25' E 140°39'30 7.4
2016-May-25 21:30N 35°55' E 140°40'1 0.0
2016-May-25 08:18N 35°56' E 140°40'0 0.0
2016-May-24 16:16N 35°56' E 140°40'0 0.2
2016-May-24 15:33N 35°56' E 140°40'0 0.0
2016-May-24 14:31N 35°56' E 140°40'0 0.0
2016-May-24 13:31N 35°56' E 140°40'0 0.0
2016-May-24 12:13N 35°56' E 140°40'0 0.0
2016-May-24 10:19N 35°56' E 140°40'0 0.0
2016-May-24 09:28N 35°56' E 140°40'0 0.0
2016-May-24 08:19N 35°56' E 140°40'0 0.0
2016-May-24 07:25N 35°56' E 140°40'0 0.0
2016-May-24 06:31N 35°56' E 140°40'0 0.0
2016-May-24 04:31N 35°56' E 140°40'0 0.0
2016-May-24 03:25N 35°56' E 140°40'0 0.0
2016-May-24 02:31N 35°56' E 140°40'0 0.0
2016-May-24 01:31N 35°56' E 140°40'3 3.4
2016-May-24 00:33N 35°58' E 140°43'2 1.9
2016-May-23 23:30N 35°60' E 140°44'1010.9
2016-May-23 22:33N 35°51' E 140°50'1211.8
2016-May-23 21:33N 35°40' E 140°55'1212.4
2016-May-23 20:33N 35°30' E 140°45'1312.5
2016-May-23 19:33N 35°20' E 140°36'1313.1
2016-May-23 18:33N 35°09' E 140°26'1413.8
2016-May-23 17:33N 35°01' E 140°13'1413.6
2016-May-23 16:32N 34°54' E 139°59'1111.0
2016-May-23 15:33N 34°54' E 139°46'1212.3
2016-May-23 14:33N 35°07' E 139°45'1212.0
2016-May-23 13:33N 35°19' E 139°43'1111.0
2016-May-23 12:34N 35°28' E 139°49'1211.8
2016-May-23 11:34N 35°38' E 139°58'3 2.7
2016-May-23 10:31N 35°40' E 139°57'0 0.0
2016-May-23 09:31N 35°40' E 139°57'0 0.0
2016-May-23 08:31N 35°40' E 139°57'0 0.0
2016-May-23 07:25N 35°40' E 139°57'0 0.0
2016-May-23 06:31N 35°40' E 139°57'0 0.0
2016-May-23 05:25N 35°40' E 139°57'0 0.0
2016-May-23 04:31N 35°40' E 139°57'1 1.3
2016-May-23 03:33N 35°39' E 139°58'2 2.3
2016-May-23 02:33N 35°37' E 139°58'0 0.0
2016-May-23 01:33N 35°37' E 139°58'0 0.0
2016-May-23 00:33N 35°37' E 139°58'0 0.0
2016-May-22 23:33N 35°37' E 139°58'0 0.0
2016-May-22 22:27N 35°37' E 139°58'0 0.3
2016-May-22 21:33N 35°37' E 139°58'4 3.4
2016-May-22 20:19N 35°41' E 139°57'0 0.0
2016-May-22 19:34N 35°41' E 139°57'0 0.0
2016-May-22 18:30N 35°41' E 139°57'0 0.0
2016-May-22 17:30N 35°41' E 139°57'0 0.0
2016-May-22 16:30N 35°41' E 139°57'0 0.0
2016-May-22 15:27N 35°41' E 139°57'0 0.0
2016-May-22 14:21N 35°41' E 139°57'0 0.0
2016-May-22 13:30N 35°41' E 139°57'0 0.0
2016-May-22 12:33N 35°41' E 139°57'0 0.0
2016-May-22 11:30N 35°41' E 139°57'0 0.0
2016-May-22 10:33N 35°41' E 139°57'0 0.0
2016-May-22 09:33N 35°41' E 139°57'0 0.0
2016-May-22 08:33N 35°41' E 139°57'0 0.0
2016-May-22 07:27N 35°41' E 139°57'0 0.0
2016-May-22 06:30N 35°41' E 139°57'0 0.0
2016-May-22 05:33N 35°41' E 139°57'0 0.0
2016-May-22 04:33N 35°41' E 139°57'0 0.0
2016-May-22 03:33N 35°41' E 139°57'0 0.0
2016-May-22 02:33N 35°41' E 139°57'0 0.0
2016-May-22 01:15N 35°41' E 139°57'1 1.9
2016-May-22 00:33N 35°40' E 139°57'3 3.1
2016-May-21 23:33N 35°37' E 139°58'0 0.0
2016-May-21 22:27N 35°37' E 139°58'0 0.0
2016-May-21 21:33N 35°37' E 139°58'0 0.0
2016-May-21 20:27N 35°37' E 139°58'0 0.0
2016-May-21 19:33N 35°37' E 139°58'0 0.0
2016-May-21 18:33N 35°37' E 139°58'0 0.0
2016-May-21 17:15N 35°37' E 139°58'0 0.0
2016-May-21 16:33N 35°37' E 139°58'0 0.1
2016-May-21 15:33N 35°37' E 139°58'0 0.1
2016-May-21 14:33N 35°37' E 139°58'0 0.1
2016-May-21 13:33N 35°37' E 139°58'6 6.6
2016-May-21 12:33N 35°31' E 139°54'1110.8
2016-May-21 11:33N 35°23' E 139°46'10 9.8
2016-May-21 10:33N 35°13' E 139°47'1111.3
2016-May-21 09:33N 35°03' E 139°42'241 9.8
2016-May-20 09:06N 33°58' E 135°01'611.1
2016-May-20 08:33N 34°04' E 135°00'1211.7
2016-May-20 07:32N 34°16' E 134°58'1110.7
2016-May-20 06:27N 34°26' E 135°06'1011.4
2016-May-20 05:33N 34°32' E 135°16'9 9.3
2016-May-20 04:33N 34°35' E 135°27'1 0.2
2016-May-20 00:15N 34°34' E 135°27'0 0.0
2016-May-19 15:15N 34°34' E 135°27'0 0.0
2016-May-19 14:15N 34°34' E 135°27'0 0.0
2016-May-19 13:27N 34°34' E 135°27'0 0.0
2016-May-19 12:15N 34°34' E 135°27'0 0.0
2016-May-19 11:33N 34°34' E 135°27'0 0.0
2016-May-19 04:25N 34°34' E 135°27'7 8.5
2016-May-19 03:33N 34°36' E 135°18'1312.6
2016-May-19 02:33N 34°36' E 135°03'1413.6
2016-May-19 01:33N 34°40' E 134°47'14 0.4
2016-May-17 17:33N 34°36' E 135°03'9 9.2
2016-May-17 16:32N 34°27' E 135°03'1110.4
2016-May-17 15:28N 34°16' E 134°59'1010.5
2016-May-17 14:33N 34°07' E 134°60'  
Track history (hours):
 
Tides and Currents Weather Stations Pressure Air Temp Water Temp Dewpoint Dewpoint Depression Visibility Wind Speed Wind Dir Waves Ship Positions

Hitachimaru

Last reported at 2016-May-26 05:24 UTC. Time now 2016-May-28 11:55 UTC.
Position N 34°58' E 140°06'.

Length 83 m; draft 4.7 m.

Type: Cargo ship. MMSI: 431301756.

Date/timePositionNaut miles runAvg speedWind from/ knotsBaromVisibWave heightAir tempDewpointWater temp
2016-May-26 05:24N 34°58' E 140°06'38 9.8
2016-May-26 01:30N 35°25' E 140°39'30 7.4
2016-May-25 21:30N 35°55' E 140°40'1 0.0
2016-May-25 08:18N 35°56' E 140°40'0 0.0
2016-May-24 16:16N 35°56' E 140°40'0 0.2
2016-May-24 15:33N 35°56' E 140°40'0 0.0
2016-May-24 14:31N 35°56' E 140°40'0 0.0
2016-May-24 13:31N 35°56' E 140°40'0 0.0
2016-May-24 12:13N 35°56' E 140°40'0 0.0
2016-May-24 10:19N 35°56' E 140°40'0 0.0
2016-May-24 09:28N 35°56' E 140°40'0 0.0
2016-May-24 08:19N 35°56' E 140°40'0 0.0
2016-May-24 07:25N 35°56' E 140°40'0 0.0
2016-May-24 06:31N 35°56' E 140°40'0 0.0
2016-May-24 04:31N 35°56' E 140°40'0 0.0
2016-May-24 03:25N 35°56' E 140°40'0 0.0
2016-May-24 02:31N 35°56' E 140°40'0 0.0
2016-May-24 01:31N 35°56' E 140°40'3 3.4
2016-May-24 00:33N 35°58' E 140°43'2 1.9
2016-May-23 23:30N 35°60' E 140°44'1010.9
2016-May-23 22:33N 35°51' E 140°50'1211.8
2016-May-23 21:33N 35°40' E 140°55'1212.4
2016-May-23 20:33N 35°30' E 140°45'1312.5
2016-May-23 19:33N 35°20' E 140°36'1313.1
2016-May-23 18:33N 35°09' E 140°26'1413.8
2016-May-23 17:33N 35°01' E 140°13'1413.6
2016-May-23 16:32N 34°54' E 139°59'1111.0
2016-May-23 15:33N 34°54' E 139°46'1212.3
2016-May-23 14:33N 35°07' E 139°45'1212.0
2016-May-23 13:33N 35°19' E 139°43'1111.0
2016-May-23 12:34N 35°28' E 139°49'1211.8
2016-May-23 11:34N 35°38' E 139°58'3 2.7
2016-May-23 10:31N 35°40' E 139°57'0 0.0
2016-May-23 09:31N 35°40' E 139°57'0 0.0
2016-May-23 08:31N 35°40' E 139°57'0 0.0
2016-May-23 07:25N 35°40' E 139°57'0 0.0
2016-May-23 06:31N 35°40' E 139°57'0 0.0
2016-May-23 05:25N 35°40' E 139°57'0 0.0
2016-May-23 04:31N 35°40' E 139°57'1 1.3
2016-May-23 03:33N 35°39' E 139°58'2 2.3
2016-May-23 02:33N 35°37' E 139°58'0 0.0
2016-May-23 01:33N 35°37' E 139°58'0 0.0
2016-May-23 00:33N 35°37' E 139°58'0 0.0
2016-May-22 23:33N 35°37' E 139°58'0 0.0
2016-May-22 22:27N 35°37' E 139°58'0 0.3
2016-May-22 21:33N 35°37' E 139°58'4 3.4
2016-May-22 20:19N 35°41' E 139°57'0 0.0
2016-May-22 19:34N 35°41' E 139°57'0 0.0
2016-May-22 18:30N 35°41' E 139°57'0 0.0
2016-May-22 17:30N 35°41' E 139°57'0 0.0
2016-May-22 16:30N 35°41' E 139°57'0 0.0
2016-May-22 15:27N 35°41' E 139°57'0 0.0
2016-May-22 14:21N 35°41' E 139°57'0 0.0
2016-May-22 13:30N 35°41' E 139°57'0 0.0
2016-May-22 12:33N 35°41' E 139°57'0 0.0
2016-May-22 11:30N 35°41' E 139°57'0 0.0
2016-May-22 10:33N 35°41' E 139°57'0 0.0
2016-May-22 09:33N 35°41' E 139°57'0 0.0
2016-May-22 08:33N 35°41' E 139°57'0 0.0
2016-May-22 07:27N 35°41' E 139°57'0 0.0
2016-May-22 06:30N 35°41' E 139°57'0 0.0
2016-May-22 05:33N 35°41' E 139°57'0 0.0
2016-May-22 04:33N 35°41' E 139°57'0 0.0
2016-May-22 03:33N 35°41' E 139°57'0 0.0
2016-May-22 02:33N 35°41' E 139°57'0 0.0
2016-May-22 01:15N 35°41' E 139°57'1 1.9
2016-May-22 00:33N 35°40' E 139°57'3 3.1
2016-May-21 23:33N 35°37' E 139°58'0 0.0
2016-May-21 22:27N 35°37' E 139°58'0 0.0
2016-May-21 21:33N 35°37' E 139°58'0 0.0
2016-May-21 20:27N 35°37' E 139°58'0 0.0
2016-May-21 19:33N 35°37' E 139°58'0 0.0
2016-May-21 18:33N 35°37' E 139°58'0 0.0
2016-May-21 17:15N 35°37' E 139°58'0 0.0
2016-May-21 16:33N 35°37' E 139°58'0 0.1
2016-May-21 15:33N 35°37' E 139°58'0 0.1
2016-May-21 14:33N 35°37' E 139°58'0 0.1
2016-May-21 13:33N 35°37' E 139°58'6 6.6
2016-May-21 12:33N 35°31' E 139°54'1110.8
2016-May-21 11:33N 35°23' E 139°46'10 9.8
2016-May-21 10:33N 35°13' E 139°47'1111.3
2016-May-21 09:33N 35°03' E 139°42'241 9.8
2016-May-20 09:06N 33°58' E 135°01'611.1
2016-May-20 08:33N 34°04' E 135°00'1211.7
2016-May-20 07:32N 34°16' E 134°58'1110.7
2016-May-20 06:27N 34°26' E 135°06'1011.4
2016-May-20 05:33N 34°32' E 135°16'9 9.3
2016-May-20 04:33N 34°35' E 135°27'1 0.2
2016-May-20 00:15N 34°34' E 135°27'0 0.0
2016-May-19 15:15N 34°34' E 135°27'0 0.0
2016-May-19 14:15N 34°34' E 135°27'0 0.0
2016-May-19 13:27N 34°34' E 135°27'0 0.0
2016-May-19 12:15N 34°34' E 135°27'0 0.0
2016-May-19 11:33N 34°34' E 135°27'0 0.0
2016-May-19 04:25N 34°34' E 135°27'7 8.5
2016-May-19 03:33N 34°36' E 135°18'1312.6
2016-May-19 02:33N 34°36' E 135°03'1413.6
2016-May-19 01:33N 34°40' E 134°47'14 0.4
2016-May-17 17:33N 34°36' E 135°03'9 9.2
2016-May-17 16:32N 34°27' E 135°03'1110.4
2016-May-17 15:28N 34°16' E 134°59'1010.5
2016-May-17 14:33N 34°07' E 134°60'  

Dump ship's entire track history